createdAt,value
2018-11-14T00:00:33.273Z,8.70
2018-11-14T00:03:03.073Z,8.60
2018-11-14T00:05:31.553Z,8.60
2018-11-14T00:08:00.099Z,8.60
2018-11-14T00:10:29.861Z,8.50
2018-11-14T00:12:58.280Z,8.50
2018-11-14T00:15:27.245Z,8.50
2018-11-14T00:17:56.190Z,8.40
2018-11-14T00:20:24.905Z,8.30
2018-11-14T00:22:53.947Z,8.30
2018-11-14T00:25:22.621Z,8.30
2018-11-14T00:27:51.315Z,8.20
2018-11-14T00:30:22.253Z,8.10
2018-11-14T00:32:50.776Z,8.10
2018-11-14T00:35:19.238Z,8.10
2018-11-14T00:37:48.574Z,8.10
2018-11-14T00:40:18.116Z,8.10
2018-11-14T00:42:47.112Z,8.10
2018-11-14T00:45:17.175Z,8.10
2018-11-14T00:47:47.051Z,8.10
2018-11-14T00:50:16.696Z,8.10
2018-11-14T00:52:45.751Z,8.10
2018-11-14T00:55:15.445Z,8.10
2018-11-14T00:57:45.512Z,8.10
2018-11-14T01:00:17.492Z,8.10
2018-11-14T01:02:47.457Z,8.10
2018-11-14T01:05:16.920Z,8.10
2018-11-14T01:07:45.719Z,8.10
2018-11-14T01:10:16.239Z,8.10
2018-11-14T01:12:46.539Z,8.10
2018-11-14T01:15:16.817Z,8.10
2018-11-14T01:17:45.784Z,8.10
2018-11-14T01:20:15.984Z,8.10
2018-11-14T01:22:44.820Z,8.20
2018-11-14T01:25:14.730Z,8.20
2018-11-14T01:27:44.036Z,8.20
2018-11-14T01:30:16.562Z,8.30
2018-11-14T01:32:45.808Z,8.30
2018-11-14T01:35:15.079Z,8.30
2018-11-14T01:37:43.892Z,8.40
2018-11-14T01:40:15.604Z,8.40
2018-11-14T01:42:45.240Z,8.40
2018-11-14T01:45:14.058Z,8.40
2018-11-14T01:47:43.204Z,8.30
2018-11-14T01:50:12.056Z,8.30
2018-11-14T01:52:40.525Z,8.30
2018-11-14T01:55:11.144Z,8.30
2018-11-14T01:57:39.633Z,8.30
2018-11-14T02:00:11.881Z,8.30
2018-11-14T02:02:41.379Z,8.30
2018-11-14T02:05:10.731Z,8.30
2018-11-14T02:07:39.461Z,8.30
2018-11-14T02:10:13.862Z,8.30
2018-11-14T02:12:43.209Z,8.20
2018-11-14T02:15:14.013Z,8.20
2018-11-14T02:17:42.484Z,8.10
2018-11-14T02:20:12.024Z,8.10
2018-11-14T02:22:41.365Z,8.10
2018-11-14T02:25:11.194Z,8.10
2018-11-14T02:27:39.761Z,8.00
2018-11-14T02:30:10.742Z,8.00
2018-11-14T02:32:39.555Z,8.00
2018-11-14T02:35:08.950Z,7.90
2018-11-14T02:37:37.624Z,7.90
2018-11-14T02:40:08.606Z,7.90
2018-11-14T02:42:37.187Z,7.90
2018-11-14T02:45:06.780Z,7.90
2018-11-14T02:47:35.256Z,7.90
2018-11-14T02:50:04.182Z,7.90
2018-11-14T02:52:32.703Z,7.90
2018-11-14T02:55:01.122Z,7.90
2018-11-14T02:57:29.829Z,7.90
2018-11-14T02:59:58.281Z,7.90
2018-11-14T03:02:26.795Z,7.90
2018-11-14T03:04:55.802Z,7.90
2018-11-14T03:07:24.209Z,7.90
2018-11-14T03:09:52.661Z,7.90
2018-11-14T03:12:21.979Z,7.90
2018-11-14T03:14:50.600Z,7.90
2018-11-14T03:17:19.349Z,8.00
2018-11-14T03:19:47.796Z,8.00
2018-11-14T03:22:16.724Z,8.00
2018-11-14T03:24:45.403Z,7.90
2018-11-14T03:27:14.559Z,7.90
2018-11-14T03:29:43.283Z,7.90
2018-11-14T03:32:12.245Z,7.90
2018-11-14T03:34:41.234Z,7.90
2018-11-14T03:37:09.993Z,7.90
2018-11-14T03:39:38.635Z,7.90
2018-11-14T03:42:07.645Z,7.90
2018-11-14T03:44:36.386Z,7.90
2018-11-14T03:47:05.079Z,7.80
2018-11-14T03:49:34.233Z,7.80
2018-11-14T03:52:02.924Z,7.80
2018-11-14T03:54:31.710Z,7.80
2018-11-14T03:57:01.162Z,7.80
2018-11-14T03:59:29.828Z,7.80
2018-11-14T04:01:58.536Z,7.80
2018-11-14T04:04:26.978Z,7.80
2018-11-14T04:06:55.373Z,7.80
2018-11-14T04:09:24.127Z,7.80
2018-11-14T04:11:52.905Z,7.80
2018-11-14T04:14:21.478Z,7.70
2018-11-14T04:16:49.880Z,7.70
2018-11-14T04:19:18.337Z,7.70
2018-11-14T04:21:47.587Z,7.70
2018-11-14T04:24:16.103Z,7.70
2018-11-14T04:26:44.653Z,7.80
2018-11-14T04:29:13.372Z,7.80
2018-11-14T04:31:43.127Z,7.70
2018-11-14T04:34:11.893Z,7.80
2018-11-14T04:36:40.376Z,7.80
2018-11-14T04:39:10.242Z,7.80
2018-11-14T04:41:39.025Z,7.80
2018-11-14T04:44:07.946Z,7.80
2018-11-14T04:46:36.370Z,7.80
2018-11-14T04:49:05.209Z,7.80
2018-11-14T04:51:33.896Z,7.90
2018-11-14T04:54:02.525Z,7.90
2018-11-14T04:56:31.522Z,7.80
2018-11-14T04:59:00.544Z,7.80
2018-11-14T05:01:29.235Z,7.90
2018-11-14T05:03:57.701Z,7.90
2018-11-14T05:06:27.125Z,7.90
2018-11-14T05:08:55.802Z,7.90
2018-11-14T05:11:25.018Z,7.90
2018-11-14T05:13:53.751Z,7.90
2018-11-14T05:16:22.926Z,7.90
2018-11-14T05:18:51.739Z,7.90
2018-11-14T05:21:20.273Z,7.80
2018-11-14T05:23:49.031Z,7.80
2018-11-14T05:26:17.777Z,7.90
2018-11-14T05:28:46.277Z,7.80
2018-11-14T05:31:15.071Z,7.80
2018-11-14T05:33:43.879Z,7.80
2018-11-14T05:36:12.461Z,7.80
2018-11-14T05:38:40.899Z,7.80
2018-11-14T05:41:09.871Z,7.80
2018-11-14T05:43:38.346Z,7.80
2018-11-14T05:51:54.908Z,7.80
2018-11-14T05:54:23.620Z,7.80
2018-11-14T05:56:52.210Z,7.70
2018-11-14T05:59:20.689Z,7.70
2018-11-14T06:01:49.671Z,7.70
2018-11-14T06:04:18.436Z,7.70
2018-11-14T06:06:47.090Z,7.70
2018-11-14T06:09:16.070Z,7.70
2018-11-14T06:11:44.502Z,7.70
2018-11-14T06:14:13.354Z,7.70
2018-11-14T06:16:41.988Z,7.70
2018-11-14T06:19:12.078Z,7.70
2018-11-14T06:21:40.731Z,7.70
2018-11-14T06:24:09.182Z,7.70
2018-11-14T06:26:37.953Z,7.70
2018-11-14T06:29:07.591Z,7.70
2018-11-14T06:31:36.014Z,7.70
2018-11-14T06:34:04.986Z,7.60
2018-11-14T06:36:34.253Z,7.60
2018-11-14T06:39:03.131Z,7.50
2018-11-14T06:41:31.946Z,7.50
2018-11-14T06:44:01.017Z,7.40
2018-11-14T06:46:29.572Z,7.40
2018-11-14T06:48:58.666Z,7.40
2018-11-14T06:51:27.787Z,7.40
2018-11-14T06:53:56.498Z,7.40
2018-11-14T06:56:24.994Z,7.50
2018-11-14T06:58:53.802Z,7.50
2018-11-14T07:01:22.350Z,7.50
2018-11-14T07:03:50.778Z,7.60
2018-11-14T07:06:19.480Z,7.60
2018-11-14T07:08:48.160Z,7.60
2018-11-14T07:11:17.266Z,7.70
2018-11-14T07:13:45.766Z,7.70
2018-11-14T07:16:14.316Z,7.70
2018-11-14T07:18:43.104Z,7.70
2018-11-14T07:21:11.893Z,7.70
2018-11-14T07:23:41.631Z,7.60
2018-11-14T07:26:10.472Z,7.50
2018-11-14T07:28:39.372Z,7.60
2018-11-14T07:31:08.135Z,7.60
2018-11-14T07:33:36.633Z,7.60
2018-11-14T07:36:05.126Z,7.60
2018-11-14T07:38:42.219Z,7.70
2018-11-14T07:41:15.087Z,7.70
2018-11-14T07:43:44.243Z,7.70
2018-11-14T07:46:13.211Z,7.70
2018-11-14T07:48:42.232Z,7.70
2018-11-14T07:51:10.829Z,7.70
2018-11-14T07:53:40.109Z,7.70
2018-11-14T07:56:09.275Z,7.70
2018-11-14T07:58:37.874Z,7.70
2018-11-14T08:01:06.832Z,7.70
2018-11-14T08:03:36.074Z,7.80
2018-11-14T08:06:04.923Z,7.80
2018-11-14T08:08:33.514Z,7.80
2018-11-14T08:11:02.272Z,7.70
2018-11-14T08:13:31.903Z,7.70
2018-11-14T08:16:01.190Z,7.70
2018-11-14T08:18:30.928Z,7.70
2018-11-14T08:21:01.011Z,7.70
2018-11-14T08:23:29.794Z,7.70
2018-11-14T08:25:58.632Z,7.80
2018-11-14T08:28:27.583Z,7.80
2018-11-14T08:30:56.177Z,7.80
2018-11-14T08:33:25.106Z,7.80
2018-11-14T08:35:53.868Z,7.80
2018-11-14T08:38:22.384Z,7.90
2018-11-14T08:40:51.897Z,7.90
2018-11-14T08:43:20.468Z,8.00
2018-11-14T08:45:49.426Z,8.00
2018-11-14T08:48:18.742Z,8.00
2018-11-14T08:50:47.776Z,8.10
2018-11-14T08:53:16.254Z,8.00
2018-11-14T08:55:44.972Z,8.00
2018-11-14T08:58:14.045Z,8.00
2018-11-14T09:00:42.826Z,7.90
2018-11-14T09:03:13.888Z,7.90
2018-11-14T09:05:42.752Z,7.90
2018-11-14T09:08:12.231Z,7.90
2018-11-14T09:10:41.050Z,7.90
2018-11-14T09:13:14.594Z,7.90
2018-11-14T09:15:43.286Z,7.90
2018-11-14T09:18:11.895Z,7.90
2018-11-14T09:20:41.480Z,7.90
2018-11-14T09:23:10.295Z,7.90
2018-11-14T09:25:39.277Z,8.00
2018-11-14T09:28:08.720Z,7.90
2018-11-14T09:30:37.341Z,7.90
2018-11-14T09:33:06.684Z,7.80
2018-11-14T09:35:35.963Z,7.80
2018-11-14T09:38:04.563Z,7.70
2018-11-14T09:40:33.137Z,7.70
2018-11-14T09:43:02.987Z,7.60
2018-11-14T09:45:31.962Z,7.60
2018-11-14T09:48:00.512Z,7.60
2018-11-14T09:50:30.248Z,7.60
2018-11-14T09:53:00.607Z,7.60
2018-11-14T09:55:29.045Z,7.60
2018-11-14T09:57:57.825Z,7.60
2018-11-14T10:00:28.011Z,7.60
2018-11-14T10:03:01.506Z,7.70
2018-11-14T10:05:30.309Z,7.70
2018-11-14T10:08:01.684Z,7.80
2018-11-14T10:10:30.060Z,7.80
2018-11-14T10:12:58.519Z,7.90
2018-11-14T10:15:27.604Z,7.90
2018-11-14T10:17:56.197Z,7.90
2018-11-14T10:20:25.735Z,7.90
2018-11-14T10:22:54.624Z,7.90
2018-11-14T10:25:23.097Z,7.90
2018-11-14T10:27:51.734Z,7.90
2018-11-14T10:30:22.056Z,7.90
2018-11-14T10:32:51.599Z,7.90
2018-11-14T10:35:20.208Z,8.00
2018-11-14T10:37:49.020Z,8.00
2018-11-14T10:40:20.094Z,8.00
2018-11-14T10:42:48.850Z,8.00
2018-11-14T10:45:18.876Z,8.00
2018-11-14T10:47:47.377Z,8.00
2018-11-14T10:50:18.883Z,8.10
2018-11-14T10:52:48.164Z,8.10
2018-11-14T10:55:17.392Z,8.10
2018-11-14T10:57:45.962Z,8.10
2018-11-14T11:00:25.911Z,8.10
2018-11-14T11:03:00.363Z,8.20
2018-11-14T11:05:34.429Z,8.20
2018-11-14T11:08:10.550Z,8.20
2018-11-14T11:10:44.673Z,8.20
2018-11-14T11:13:18.449Z,8.20
2018-11-14T11:15:52.365Z,8.30
2018-11-14T11:18:25.334Z,8.30
2018-11-14T11:20:55.051Z,8.30
2018-11-14T11:23:24.368Z,8.30
2018-11-14T11:25:53.254Z,8.30
2018-11-14T11:28:22.212Z,8.30
2018-11-14T11:30:51.341Z,8.40
2018-11-14T11:33:19.840Z,8.40
2018-11-14T11:35:48.255Z,8.50
2018-11-14T11:38:16.824Z,8.50
2018-11-14T11:40:46.001Z,8.50
2018-11-14T11:43:14.874Z,8.60
2018-11-14T11:45:43.877Z,8.60
2018-11-14T11:48:12.352Z,8.70
2018-11-14T11:50:41.439Z,8.70
2018-11-14T11:53:10.101Z,8.70
2018-11-14T11:55:38.774Z,8.60
2018-11-14T11:58:07.986Z,8.60
2018-11-14T12:00:36.537Z,8.60
2018-11-14T12:03:05.561Z,8.70
2018-11-14T12:05:35.111Z,8.70
2018-11-14T12:08:03.777Z,8.70
2018-11-14T12:10:32.557Z,8.70
2018-11-14T12:13:01.206Z,8.70
2018-11-14T12:15:29.716Z,8.70
2018-11-14T12:17:58.451Z,8.70
2018-11-14T12:20:27.386Z,8.70
2018-11-14T12:22:55.811Z,8.70
2018-11-14T12:25:24.287Z,8.70
2018-11-14T12:27:53.055Z,8.70
2018-11-14T12:30:21.915Z,8.70
2018-11-14T12:32:51.390Z,8.60
2018-11-14T12:35:20.000Z,8.50
2018-11-14T12:37:49.048Z,8.50
2018-11-14T12:40:17.849Z,8.50
2018-11-14T12:42:46.700Z,8.40
2018-11-14T12:45:16.758Z,8.40
2018-11-14T12:47:45.565Z,8.30
2018-11-14T12:50:14.651Z,8.20
2018-11-14T12:52:43.638Z,8.20
2018-11-14T12:55:15.122Z,8.10
2018-11-14T12:57:44.164Z,8.00
2018-11-14T13:00:15.072Z,7.90
2018-11-14T13:02:44.466Z,7.90
2018-11-14T13:05:13.946Z,7.90
2018-11-14T13:07:42.846Z,7.90
2018-11-14T13:10:13.715Z,7.90
2018-11-14T13:12:42.891Z,7.90
2018-11-14T13:15:13.659Z,7.90
2018-11-14T13:17:43.218Z,7.90
2018-11-14T13:20:14.614Z,7.90
2018-11-14T13:22:44.105Z,7.80
2018-11-14T13:25:13.816Z,7.90
2018-11-14T13:27:43.622Z,7.80
2018-11-14T13:30:14.718Z,7.80
2018-11-14T13:32:43.994Z,7.70
2018-11-14T13:35:14.846Z,7.70
2018-11-14T13:37:43.882Z,7.70
2018-11-14T13:40:12.710Z,7.70
2018-11-14T13:42:41.523Z,7.70
2018-11-14T13:45:11.871Z,7.70
2018-11-14T13:47:41.292Z,7.70
2018-11-14T13:50:13.488Z,7.70
2018-11-14T13:52:42.139Z,7.60
2018-11-14T13:55:13.415Z,7.60
2018-11-14T13:57:43.261Z,7.60
2018-11-14T14:00:12.949Z,7.60
2018-11-14T14:02:42.506Z,7.60
2018-11-14T14:05:13.563Z,7.70
2018-11-14T14:07:42.240Z,7.60
2018-11-14T14:10:12.650Z,7.60
2018-11-14T14:12:42.238Z,7.60
2018-11-14T14:15:13.766Z,7.60
2018-11-14T14:17:44.514Z,7.60
2018-11-14T14:20:13.969Z,7.60
2018-11-14T14:22:43.127Z,7.60
2018-11-14T14:25:14.308Z,7.60
2018-11-14T14:27:42.900Z,7.60
2018-11-14T14:30:14.519Z,7.60
2018-11-14T14:32:44.008Z,7.60
2018-11-14T14:35:13.572Z,7.60
2018-11-14T14:37:42.354Z,7.60
2018-11-14T14:40:13.339Z,7.60
2018-11-14T14:42:42.576Z,7.60
2018-11-14T14:45:12.311Z,7.50
2018-11-14T14:47:41.755Z,7.60
2018-11-14T14:50:12.419Z,7.60
2018-11-14T14:52:41.266Z,7.60
2018-11-14T14:55:14.936Z,7.60
2018-11-14T14:57:45.120Z,7.60
2018-11-14T15:00:15.464Z,7.60
2018-11-14T15:02:44.382Z,7.60
2018-11-14T15:05:13.834Z,7.70
2018-11-14T15:07:42.497Z,7.60
2018-11-14T15:10:13.997Z,7.60
2018-11-14T15:12:42.776Z,7.70
2018-11-14T15:15:11.858Z,7.60
2018-11-14T15:17:40.765Z,7.60
2018-11-14T15:20:13.812Z,7.60
2018-11-14T15:22:42.887Z,7.70
2018-11-14T15:25:14.749Z,7.70
2018-11-14T15:27:43.942Z,7.70
2018-11-14T15:30:16.748Z,7.60
2018-11-14T15:32:45.365Z,7.60
2018-11-14T15:35:14.236Z,7.50
2018-11-14T15:37:42.834Z,7.50
2018-11-14T15:40:14.653Z,7.40
2018-11-14T15:42:43.626Z,7.50
2018-11-14T15:45:16.894Z,7.50
2018-11-14T15:47:45.592Z,7.50
2018-11-14T15:50:16.683Z,7.50
2018-11-14T15:52:46.768Z,7.50
2018-11-14T15:55:16.383Z,7.50
2018-11-14T15:57:45.324Z,7.50
2018-11-14T16:00:16.559Z,7.50
2018-11-14T16:02:45.187Z,7.50
2018-11-14T16:05:16.289Z,7.50
2018-11-14T16:07:47.360Z,7.50
2018-11-14T16:10:18.047Z,7.40
2018-11-14T16:12:47.096Z,7.50
2018-11-14T16:15:17.118Z,7.40
2018-11-14T16:17:45.630Z,7.50
2018-11-14T16:20:15.587Z,7.50
2018-11-14T16:22:44.382Z,7.50
2018-11-14T16:25:14.268Z,7.50
2018-11-14T16:27:44.102Z,7.60
2018-11-14T16:30:15.406Z,7.60
2018-11-14T16:32:45.153Z,7.50
2018-11-14T16:35:14.034Z,7.50
2018-11-14T16:37:43.170Z,7.50
2018-11-14T16:40:19.999Z,7.40
2018-11-14T16:42:49.353Z,7.40
2018-11-14T16:45:18.943Z,7.40
2018-11-14T16:47:48.162Z,7.30
2018-11-14T16:50:18.734Z,7.30
2018-11-14T16:52:47.791Z,7.30
2018-11-14T16:55:18.517Z,7.30
2018-11-14T16:57:48.381Z,7.30
2018-11-14T17:00:30.176Z,7.30
2018-11-14T17:02:59.022Z,7.30
2018-11-14T17:05:29.048Z,7.20
2018-11-14T17:07:57.612Z,7.20
2018-11-14T17:10:26.285Z,7.10
2018-11-14T17:12:57.296Z,7.10
2018-11-14T17:15:26.644Z,7.10
2018-11-14T17:17:56.670Z,7.10
2018-11-14T17:20:26.609Z,7.10
2018-11-14T17:22:55.694Z,7.10
2018-11-14T17:25:24.562Z,7.10
2018-11-14T17:27:53.526Z,7.10
2018-11-14T17:30:25.634Z,7.10
2018-11-14T17:32:54.914Z,7.20
2018-11-14T17:35:24.717Z,7.10
2018-11-14T17:37:54.190Z,7.10
2018-11-14T17:40:25.357Z,7.10
2018-11-14T17:42:54.637Z,7.20
2018-11-14T17:45:27.864Z,7.10
2018-11-14T17:47:56.943Z,7.10
2018-11-14T17:50:27.013Z,7.10
2018-11-14T17:52:56.320Z,7.10
2018-11-14T17:55:25.443Z,7.10
2018-11-14T17:57:54.349Z,7.10
2018-11-14T18:00:30.940Z,7.10
2018-11-14T18:03:00.756Z,7.10
2018-11-14T18:05:30.399Z,7.10
2018-11-14T18:07:59.152Z,7.10
2018-11-14T18:10:28.810Z,7.10
2018-11-14T18:12:58.452Z,7.10
2018-11-14T18:15:27.032Z,7.10
2018-11-14T18:17:56.255Z,7.10
2018-11-14T18:20:29.946Z,7.10
2018-11-14T18:22:59.318Z,7.10
2018-11-14T18:25:28.073Z,7.10
2018-11-14T18:27:56.904Z,7.10
2018-11-14T18:30:26.369Z,7.10
2018-11-14T18:32:55.975Z,7.10
2018-11-14T18:35:25.141Z,7.10
2018-11-14T18:37:54.669Z,7.10
2018-11-14T18:40:25.233Z,7.10
2018-11-14T18:42:54.444Z,7.10
2018-11-14T18:45:26.060Z,7.10
2018-11-14T18:47:57.135Z,7.10
2018-11-14T18:50:27.216Z,7.10
2018-11-14T18:52:56.344Z,7.00
2018-11-14T18:55:26.816Z,7.00
2018-11-14T18:57:56.348Z,7.10
2018-11-14T19:00:27.705Z,7.00
2018-11-14T19:02:56.788Z,7.10
2018-11-14T19:05:26.112Z,7.00
2018-11-14T19:07:55.771Z,7.10
2018-11-14T19:10:27.140Z,7.00
2018-11-14T19:12:56.255Z,7.00
2018-11-14T19:15:30.765Z,7.00
2018-11-14T19:18:00.194Z,6.90
2018-11-14T19:20:31.978Z,6.90
2018-11-14T19:23:01.870Z,6.90
2018-11-14T19:25:33.362Z,6.90
2018-11-14T19:28:07.965Z,6.90
2018-11-14T19:30:38.223Z,6.90
2018-11-14T19:33:07.094Z,6.90
2018-11-14T19:35:36.174Z,6.90
2018-11-14T19:38:05.040Z,6.90
2018-11-14T19:40:35.682Z,6.90
2018-11-14T19:43:09.786Z,6.90
2018-11-14T19:45:39.919Z,6.90
2018-11-14T19:48:10.128Z,6.80
2018-11-14T19:50:39.055Z,6.80
2018-11-14T19:53:08.078Z,6.80
2018-11-14T19:55:37.320Z,6.80
2018-11-14T19:58:07.050Z,6.80
2018-11-14T20:00:39.074Z,6.80
2018-11-14T20:03:08.672Z,6.80
2018-11-14T20:05:39.367Z,6.80
2018-11-14T20:08:08.383Z,6.70
2018-11-14T20:10:37.873Z,6.70
2018-11-14T20:13:07.357Z,6.80
2018-11-14T20:15:38.204Z,6.80
2018-11-14T20:18:08.880Z,6.80
2018-11-14T20:20:39.385Z,6.80
2018-11-14T20:23:09.108Z,6.80
2018-11-14T20:25:38.147Z,6.80
2018-11-14T20:28:08.190Z,6.80
2018-11-14T20:30:39.053Z,6.80
2018-11-14T20:33:11.265Z,6.90
2018-11-14T20:35:40.223Z,6.80
2018-11-14T20:38:09.437Z,6.80
2018-11-14T20:40:40.165Z,6.90
2018-11-14T20:43:09.268Z,6.90
2018-11-14T20:45:39.438Z,6.80
2018-11-14T20:48:09.714Z,6.80
2018-11-14T20:50:39.658Z,6.80
2018-11-14T20:53:08.847Z,6.80
2018-11-14T20:55:40.626Z,6.80
2018-11-14T20:58:10.053Z,6.90
2018-11-14T21:00:39.735Z,6.90
2018-11-14T21:03:09.433Z,6.80
2018-11-14T21:05:38.041Z,6.90
2018-11-14T21:08:06.858Z,6.90
2018-11-14T21:10:35.807Z,6.90
2018-11-14T21:13:04.873Z,6.90
2018-11-14T21:15:35.406Z,6.90
2018-11-14T21:18:04.442Z,6.80
2018-11-14T21:20:33.265Z,6.90
2018-11-14T21:23:01.880Z,6.90
2018-11-14T21:25:30.830Z,6.80
2018-11-14T21:28:00.340Z,6.80
2018-11-14T21:30:30.702Z,6.80
2018-11-14T21:33:02.705Z,6.80
2018-11-14T21:35:33.940Z,6.80
2018-11-14T21:38:05.858Z,6.80
2018-11-14T21:40:34.651Z,6.80
2018-11-14T21:43:05.603Z,6.80
2018-11-14T21:45:34.914Z,6.70
2018-11-14T21:48:09.139Z,6.80
2018-11-14T21:50:38.908Z,6.80
2018-11-14T21:53:08.222Z,6.80
2018-11-14T21:55:36.966Z,6.80
2018-11-14T21:58:05.504Z,6.80
2018-11-14T22:00:35.953Z,6.80
2018-11-14T22:03:05.219Z,6.80
2018-11-14T22:05:34.304Z,6.80
2018-11-14T22:08:03.902Z,6.70
2018-11-14T22:10:33.330Z,6.70
2018-11-14T22:13:02.375Z,6.70
2018-11-14T22:15:32.396Z,6.80
2018-11-14T22:18:02.011Z,6.70
2018-11-14T22:20:31.211Z,6.80
2018-11-14T22:22:59.694Z,6.80
2018-11-14T22:25:29.335Z,6.70
2018-11-14T22:27:59.388Z,6.70
2018-11-14T22:30:30.183Z,6.70
2018-11-14T22:32:59.062Z,6.70
2018-11-14T22:35:29.019Z,6.60
2018-11-14T22:37:57.888Z,6.60
2018-11-14T22:40:28.105Z,6.60
2018-11-14T22:42:56.748Z,6.60
2018-11-14T22:45:26.828Z,6.60
2018-11-14T22:47:55.302Z,6.60
2018-11-14T22:50:24.840Z,6.60
2018-11-14T22:52:54.645Z,6.50
2018-11-14T22:55:24.896Z,6.60
2018-11-14T22:57:54.308Z,6.60
2018-11-14T23:00:32.908Z,6.50
2018-11-14T23:03:02.975Z,6.40
2018-11-14T23:05:31.649Z,6.40
2018-11-14T23:08:01.203Z,6.40
2018-11-14T23:10:30.082Z,6.40
2018-11-14T23:12:59.078Z,6.30
2018-11-14T23:15:27.615Z,6.30
2018-11-14T23:17:56.090Z,6.30
2018-11-14T23:20:25.080Z,6.30
2018-11-14T23:22:54.600Z,6.30
2018-11-14T23:25:23.610Z,6.30
2018-11-14T23:27:53.868Z,6.30
2018-11-14T23:30:23.433Z,6.30
2018-11-14T23:32:52.830Z,6.30
2018-11-14T23:35:22.762Z,6.30
2018-11-14T23:37:52.566Z,6.30
2018-11-14T23:40:21.484Z,6.30
2018-11-14T23:42:50.433Z,6.30
2018-11-14T23:45:19.874Z,6.30
2018-11-14T23:47:49.141Z,6.30
2018-11-14T23:50:19.566Z,6.30
2018-11-14T23:52:49.103Z,6.30
2018-11-14T23:55:18.738Z,6.30
2018-11-14T23:57:47.483Z,6.30
